Time;durP1;ratioP1;P1;durP2;ratioP2;P2;SDS_P1;SDS_P2;PMS_P1;PMS_P2;Temp;Humidity;BMP_temperature;BMP_pressure;BME280_temperature;BME280_humidity;BME280_pressure;Samples;Min_cycle;Max_cycle;Signal;HPM_P1;HPM_P2
2022/02/08 00:00:41;;;;;;;;;11.00;9.00;;;;;;;;5000763;28;45494;-96
2022/02/08 00:03:07;;;;;;;;;12.67;8.00;;;;;;;;5001774;28;44850;-96
2022/02/08 00:05:33;;;;;;;;;12.00;8.33;;;;;;;;4997617;28;44915;-92
2022/02/08 00:07:58;;;;;;;;;7.00;7.00;;;;;;;;4989732;28;47548;-96
2022/02/08 00:10:26;;;;;;;;;11.67;7.33;;;;;;;;5002917;28;44737;-96
2022/02/08 00:12:52;;;;;;;;;8.67;8.00;;;;;;;;5003611;28;44861;-96
2022/02/08 00:15:17;;;;;;;;;9.67;8.67;;;;;;;;4983630;28;44837;-96
2022/02/08 00:17:43;;;;;;;;;5.67;5.67;;;;;;;;4995302;28;45255;-96
2022/02/08 00:20:09;;;;;;;;;11.67;8.00;;;;;;;;5001796;28;45571;-96
2022/02/08 00:22:35;;;;;;;;;8.33;8.00;;;;;;;;5001807;28;44731;-95
2022/02/08 00:25:04;;;;;;;;;8.33;7.00;;;;;;;;5002480;28;44910;-96
2022/02/08 00:27:29;;;;;;;;;5.33;4.33;;;;;;;;5001873;28;47379;-96
2022/02/08 00:29:54;;;;;;;;;9.67;7.33;;;;;;;;5002688;28;44925;-94
2022/02/08 00:32:20;;;;;;;;;13.33;8.33;;;;;;;;5002182;28;44810;-96
2022/02/08 00:34:45;;;;;;;;;8.67;7.67;;;;;;;;5001734;28;45250;-96
2022/02/08 00:37:10;;;;;;;;;8.00;7.00;;;;;;;;5000866;28;47186;-96
2022/02/08 00:39:36;;;;;;;;;9.33;6.33;;;;;;;;5002154;28;45226;-96
2022/02/08 00:42:06;;;;;;;;;7.00;4.00;;;;;;;;5019331;28;44864;-96
2022/02/08 00:44:39;;;;;;;;;7.00;5.33;;;;;;;;4995431;28;45012;-96
2022/02/08 00:47:22;;;;;;;;;8.33;7.00;;;;;;;;5001751;28;46797;-96
2022/02/08 00:49:47;;;;;;;;;9.00;7.00;;;;;;;;4991565;28;45393;-96
2022/02/08 00:52:16;;;;;;;;;6.00;5.67;;;;;;;;5018322;28;44983;-96
2022/02/08 00:54:42;;;;;;;;;9.00;3.33;;;;;;;;5013443;28;44842;-96
2022/02/08 00:57:07;;;;;;;;;6.67;6.67;;;;;;;;4978227;28;47103;-96
2022/02/08 00:59:33;;;;;;;;;6.67;6.67;;;;;;;;4977911;28;45201;-96
2022/02/08 01:01:58;;;;;;;;;9.00;7.00;;;;;;;;4985132;28;45399;-96
2022/02/08 01:04:25;;;;;;;;;9.67;5.67;;;;;;;;4984171;28;44914;-96
2022/02/08 01:06:53;;;;;;;;;7.00;6.00;;;;;;;;5000219;28;46252;-96
2022/02/08 01:09:24;;;;;;;;;9.00;7.67;;;;;;;;4991028;28;44731;-96
2022/02/08 01:11:52;;;;;;;;;6.67;4.33;;;;;;;;4967599;28;44877;-96
2022/02/08 01:14:18;;;;;;;;;3.00;1.00;;;;;;;;4966580;28;44992;-96
2022/02/08 01:16:44;;;;;;;;;8.00;6.67;;;;;;;;4997486;28;45549;-96
2022/02/08 01:19:09;;;;;;;;;14.00;8.00;;;;;;;;4980267;28;45316;-96
2022/02/08 01:21:35;;;;;;;;;7.33;5.33;;;;;;;;4979752;28;44706;-96
2022/02/08 01:24:01;;;;;;;;;7.00;7.00;;;;;;;;4979342;28;45321;-96
2022/02/08 01:26:31;;;;;;;;;7.33;5.67;;;;;;;;4981104;28;47126;-96
2022/02/08 01:31:25;;;;;;;;;8.67;7.00;;;;;;;;4999670;28;44731;-96
2022/02/08 01:36:39;;;;;;;;;4.33;4.33;;;;;;;;5004175;28;45159;-94
2022/02/08 01:39:14;;;;;;;;;6.67;5.67;;;;;;;;4982921;28;44995;-96
2022/02/08 01:41:57;;;;;;;;;8.33;6.33;;;;;;;;4964987;28;44847;-96
2022/02/08 01:44:57;;;;;;;;;7.67;6.33;;;;;;;;4958154;28;44813;-96
2022/02/08 01:47:30;;;;;;;;;6.00;5.33;;;;;;;;4969626;28;47126;-96
2022/02/08 01:49:59;;;;;;;;;6.67;4.00;;;;;;;;4966239;28;45279;-96
2022/02/08 01:52:24;;;;;;;;;6.33;4.67;;;;;;;;4968128;28;45394;-96
2022/02/08 01:54:51;;;;;;;;;9.67;5.00;;;;;;;;4972169;28;44871;-96
2022/02/08 01:57:16;;;;;;;;;6.00;6.00;;;;;;;;4987899;28;47378;-96
2022/02/08 01:59:42;;;;;;;;;8.00;7.00;;;;;;;;4981513;28;44748;-96
2022/02/08 02:02:07;;;;;;;;;7.33;7.00;;;;;;;;4991680;28;45371;-96
2022/02/08 02:04:32;;;;;;;;;6.00;4.33;;;;;;;;5002416;28;44934;-96
2022/02/08 02:07:00;;;;;;;;;6.33;6.00;;;;;;;;4986137;28;46931;-96
2022/02/08 02:09:25;;;;;;;;;6.00;5.00;;;;;;;;4992450;28;44878;-96
2022/02/08 02:11:53;;;;;;;;;8.33;4.00;;;;;;;;4993398;28;45550;-96
2022/02/08 02:14:18;;;;;;;;;9.33;6.33;;;;;;;;4985857;28;45340;-96
2022/02/08 02:16:59;;;;;;;;;5.33;5.33;;;;;;;;4990186;28;47577;-96
2022/02/08 02:19:28;;;;;;;;;10.33;7.67;;;;;;;;5006126;28;44838;-96
2022/02/08 02:21:54;;;;;;;;;6.00;6.00;;;;;;;;5003435;28;44774;-96
2022/02/08 02:24:21;;;;;;;;;4.00;4.00;;;;;;;;4985789;28;45497;-96
2022/02/08 02:26:46;;;;;;;;;7.00;5.33;;;;;;;;4978337;28;47667;-96
2022/02/08 02:29:13;;;;;;;;;7.00;5.67;;;;;;;;4987563;28;44876;-96
2022/02/08 02:31:40;;;;;;;;;5.33;5.00;;;;;;;;5001088;28;44865;-96
2022/02/08 02:34:05;;;;;;;;;9.00;6.67;;;;;;;;5010194;28;44818;-96
2022/02/08 02:36:31;;;;;;;;;7.00;5.00;;;;;;;;4988505;28;46371;-96
2022/02/08 02:38:56;;;;;;;;;4.00;4.00;;;;;;;;5000170;28;45199;-96
2022/02/08 02:41:21;;;;;;;;;4.00;3.00;;;;;;;;4998940;28;45409;-96
2022/02/08 02:43:47;;;;;;;;;9.67;6.00;;;;;;;;4986917;28;45314;-96
2022/02/08 02:46:12;;;;;;;;;8.67;4.00;;;;;;;;4990831;28;47407;-96
2022/02/08 02:48:37;;;;;;;;;5.67;3.33;;;;;;;;4990077;28;45409;-96
2022/02/08 02:51:03;;;;;;;;;6.67;3.00;;;;;;;;4989730;28;44750;-96
2022/02/08 02:53:30;;;;;;;;;8.67;8.67;;;;;;;;4997928;28;45406;-96
2022/02/08 02:55:55;;;;;;;;;5.33;5.33;;;;;;;;5002928;28;46311;-96
2022/02/08 02:58:27;;;;;;;;;6.50;3.50;;;;;;;;5004501;28;44780;-96
2022/02/08 03:19:59;;;;;;;;;10.00;6.67;;;;;;;;4927686;28;45347;-96
2022/02/08 03:22:25;;;;;;;;;5.00;3.00;;;;;;;;4912578;28;45433;-96
2022/02/08 03:24:50;;;;;;;;;2.67;2.00;;;;;;;;4911280;28;44906;-96
2022/02/08 03:27:15;;;;;;;;;4.33;4.33;;;;;;;;4928101;28;47578;-96
2022/02/08 03:29:41;;;;;;;;;5.00;4.00;;;;;;;;4923327;28;44858;-96
2022/02/08 03:32:08;;;;;;;;;6.33;4.00;;;;;;;;4915857;28;45372;-96
2022/02/08 03:34:33;;;;;;;;;3.67;3.67;;;;;;;;4928576;28;45400;-96
2022/02/08 03:36:58;;;;;;;;;7.00;3.00;;;;;;;;4926859;28;47133;-96
2022/02/08 03:39:33;;;;;;;;;8.00;4.67;;;;;;;;4917976;28;45072;-96
2022/02/08 03:42:06;;;;;;;;;4.33;4.00;;;;;;;;4991120;28;45317;-96
2022/02/08 03:44:33;;;;;;;;;7.67;5.33;;;;;;;;5002917;28;44898;-96
2022/02/08 03:47:04;;;;;;;;;4.00;4.00;;;;;;;;4988786;28;47263;-96
2022/02/08 03:49:30;;;;;;;;;6.67;4.33;;;;;;;;4981968;28;45342;-96
2022/02/08 03:51:59;;;;;;;;;9.00;5.00;;;;;;;;4966560;28;45376;-96
2022/02/08 03:54:24;;;;;;;;;4.67;4.67;;;;;;;;4984363;28;45398;-96
2022/02/08 03:56:50;;;;;;;;;8.33;3.00;;;;;;;;4999495;28;47041;-96
2022/02/08 03:59:16;;;;;;;;;10.00;8.33;;;;;;;;4994763;28;44894;-96
2022/02/08 04:06:35;;;;;;;;;7.67;5.33;;;;;;;;4998893;28;45112;-96
2022/02/08 04:09:00;;;;;;;;;7.33;7.33;;;;;;;;4988965;28;45351;-96
2022/02/08 04:11:26;;;;;;;;;5.00;5.00;;;;;;;;4987538;28;44809;-96
2022/02/08 04:13:59;;;;;;;;;7.33;4.33;;;;;;;;4990828;28;44871;-96
2022/02/08 04:16:31;;;;;;;;;8.67;6.33;;;;;;;;4971661;28;48020;-96
2022/02/08 04:19:17;;;;;;;;;6.33;4.33;;;;;;;;4988338;28;45299;-96
2022/02/08 04:33:20;;;;;;;;;7.00;4.00;;;;;;;;4849527;29;45436;-96
2022/02/08 04:41:02;;;;;;;;;7.67;5.33;;;;;;;;4836891;29;45268;-96
2022/02/08 04:43:39;;;;;;;;;12.33;7.33;;;;;;;;4848306;29;44793;-96
2022/02/08 04:48:43;;;;;;;;;5.33;3.67;;;;;;;;4850690;29;45920;-96
2022/02/08 04:51:23;;;;;;;;;11.00;8.67;;;;;;;;4847305;29;46199;-96
2022/02/08 04:56:33;;;;;;;;;5.33;4.33;;;;;;;;4849098;29;45522;-96
2022/02/08 05:02:04;;;;;;;;;6.67;4.00;;;;;;;;4854444;29;45490;-96
2022/02/08 05:37:19;;;;;;;;;11.00;9.00;;;;;;;;5003556;28;45345;-96
2022/02/08 05:45:11;;;;;;;;;5.67;4.67;;;;;;;;5005403;28;45298;-96
2022/02/08 05:47:41;;;;;;;;;4.00;4.00;;;;;;;;4987235;28;44727;-96
2022/02/08 05:52:51;;;;;;;;;4.33;4.33;;;;;;;;4991792;28;45335;-96
2022/02/08 05:55:16;;;;;;;;;5.33;4.00;;;;;;;;4995149;28;45396;-90
2022/02/08 05:57:42;;;;;;;;;4.00;4.00;;;;;;;;4995021;28;47143;-92
2022/02/08 06:00:08;;;;;;;;;4.00;4.00;;;;;;;;4975483;28;45386;-87
2022/02/08 06:02:33;;;;;;;;;4.67;4.67;;;;;;;;4987527;28;45503;-90
2022/02/08 06:04:58;;;;;;;;;3.00;3.00;;;;;;;;4972141;28;45665;-89
2022/02/08 06:07:24;;;;;;;;;7.00;6.00;;;;;;;;4985173;28;45673;-90
2022/02/08 06:09:53;;;;;;;;;7.67;5.00;;;;;;;;4982813;28;45657;-87
2022/02/08 06:12:22;;;;;;;;;5.00;4.00;;;;;;;;4993016;28;46232;-87
2022/02/08 06:14:55;;;;;;;;;5.67;4.00;;;;;;;;4974362;28;45446;-88
2022/02/08 06:17:20;;;;;;;;;9.00;6.33;;;;;;;;4975022;28;45568;-87
2022/02/08 06:19:46;;;;;;;;;6.33;4.00;;;;;;;;4991841;28;45376;-88
2022/02/08 06:22:11;;;;;;;;;4.00;4.00;;;;;;;;4997686;28;45848;-87
2022/02/08 06:24:36;;;;;;;;;4.00;3.33;;;;;;;;4994300;28;45257;-88
2022/02/08 06:27:01;;;;;;;;;6.67;4.00;;;;;;;;4992554;28;45324;-87
2022/02/08 06:29:26;;;;;;;;;4.00;4.00;;;;;;;;4992171;28;45715;-83
2022/02/08 06:31:52;;;;;;;;;5.00;5.00;;;;;;;;4991165;28;46980;-84
2022/02/08 06:34:21;;;;;;;;;4.33;4.33;;;;;;;;4992965;28;45780;-83
2022/02/08 06:36:47;;;;;;;;;3.00;3.00;;;;;;;;4993688;28;45631;-83
2022/02/08 06:39:16;;;;;;;;;4.00;4.00;;;;;;;;4992248;28;45455;-83
2022/02/08 06:41:41;;;;;;;;;5.00;3.67;;;;;;;;4992540;28;46726;-83
2022/02/08 06:44:06;;;;;;;;;4.00;4.00;;;;;;;;4992286;28;45342;-84
2022/02/08 06:46:32;;;;;;;;;5.00;3.00;;;;;;;;4991494;28;45299;-83
2022/02/08 06:48:57;;;;;;;;;5.00;3.67;;;;;;;;4995173;28;45378;-84
2022/02/08 06:51:22;;;;;;;;;4.67;4.67;;;;;;;;4990913;28;46353;-83
2022/02/08 06:53:47;;;;;;;;;6.67;5.00;;;;;;;;4990560;28;45469;-83
2022/02/08 06:56:12;;;;;;;;;4.33;3.00;;;;;;;;4993123;28;45403;-83
2022/02/08 06:58:50;;;;;;;;;4.00;4.00;;;;;;;;4991610;28;45474;-88
2022/02/08 07:01:18;;;;;;;;;6.33;3.33;;;;;;;;4974154;28;48606;-88
2022/02/08 07:03:46;;;;;;;;;4.67;4.67;;;;;;;;4992536;28;45557;-87
2022/02/08 07:06:12;;;;;;;;;4.67;3.00;;;;;;;;4972659;28;45506;-87
2022/02/08 07:08:37;;;;;;;;;6.33;4.00;;;;;;;;4990679;28;45425;-87
2022/02/08 07:11:02;;;;;;;;;4.67;3.67;;;;;;;;4973544;28;47311;-87
2022/02/08 07:13:28;;;;;;;;;5.00;4.33;;;;;;;;4991818;28;45362;-87
2022/02/08 07:15:53;;;;;;;;;4.00;3.33;;;;;;;;4993423;28;45686;-87
2022/02/08 07:18:18;;;;;;;;;4.67;4.67;;;;;;;;4973158;28;45629;-87
2022/02/08 07:20:44;;;;;;;;;5.33;3.33;;;;;;;;4990398;28;45611;-87
2022/02/08 07:23:09;;;;;;;;;4.67;3.00;;;;;;;;4972602;28;45401;-88
2022/02/08 07:25:34;;;;;;;;;8.00;6.33;;;;;;;;4991052;28;51569;-85
2022/02/08 07:27:59;;;;;;;;;8.00;4.67;;;;;;;;4995181;28;45649;-86
2022/02/08 07:30:26;;;;;;;;;3.00;3.00;;;;;;;;4972447;28;47290;-86
2022/02/08 07:32:54;;;;;;;;;5.00;5.00;;;;;;;;4990031;28;45420;-86
2022/02/08 07:38:10;;;;;;;;;4.33;3.33;;;;;;;;4990148;28;45842;-85
2022/02/08 07:43:04;;;;;;;;;7.67;4.00;;;;;;;;4989677;28;45424;-86
2022/02/08 07:45:29;;;;;;;;;6.33;4.00;;;;;;;;4973059;28;45328;-85
2022/02/08 07:47:55;;;;;;;;;8.00;6.00;;;;;;;;4977633;28;45635;-86
2022/02/08 07:50:22;;;;;;;;;4.33;4.33;;;;;;;;4992665;28;45712;-86
2022/02/08 07:52:50;;;;;;;;;4.00;4.00;;;;;;;;4971947;28;45545;-86
2022/02/08 07:55:15;;;;;;;;;8.00;5.00;;;;;;;;4992946;28;45390;-85
2022/02/08 07:57:40;;;;;;;;;6.33;4.33;;;;;;;;4991903;28;45504;-86
2022/02/08 08:00:06;;;;;;;;;5.67;5.00;;;;;;;;4972537;28;46173;-85
2022/02/08 08:02:31;;;;;;;;;5.00;5.00;;;;;;;;4989939;28;45561;-85
2022/02/08 08:04:57;;;;;;;;;7.00;5.67;;;;;;;;4973467;28;45468;-86
2022/02/08 08:07:24;;;;;;;;;7.67;6.33;;;;;;;;4987606;28;45838;-85
2022/02/08 08:09:50;;;;;;;;;6.67;4.00;;;;;;;;4987892;28;45457;-85
2022/02/08 08:12:15;;;;;;;;;8.00;6.67;;;;;;;;4989413;28;45399;-85
2022/02/08 08:14:41;;;;;;;;;8.00;7.00;;;;;;;;4983254;28;45445;-86
2022/02/08 08:19:50;;;;;;;;;7.33;7.00;;;;;;;;4978069;28;45899;-86
2022/02/08 08:22:17;;;;;;;;;5.00;5.00;;;;;;;;4990809;28;45425;-85
2022/02/08 08:24:42;;;;;;;;;5.67;5.67;;;;;;;;4990877;28;45293;-86
2022/02/08 08:27:07;;;;;;;;;7.00;6.00;;;;;;;;4967251;28;50108;-86
2022/02/08 08:29:33;;;;;;;;;6.33;4.00;;;;;;;;4981418;28;45580;-85
2022/02/08 08:31:58;;;;;;;;;9.67;7.67;;;;;;;;4971632;28;45426;-85
2022/02/08 08:34:23;;;;;;;;;8.67;7.00;;;;;;;;4988603;28;45661;-84
2022/02/08 08:36:50;;;;;;;;;7.33;5.00;;;;;;;;4968970;28;45637;-83
2022/02/08 08:39:18;;;;;;;;;4.33;4.33;;;;;;;;4971706;28;47726;-84
2022/02/08 08:41:48;;;;;;;;;5.67;5.67;;;;;;;;4986925;28;45585;-84
2022/02/08 08:50:05;;;;;;;;;8.00;7.67;;;;;;;;4987791;28;46866;-85
2022/02/08 08:52:42;;;;;;;;;6.33;6.33;;;;;;;;4970909;28;45815;-84
2022/02/08 08:55:08;;;;;;;;;5.00;5.00;;;;;;;;4984171;28;45461;-84
2022/02/08 08:57:33;;;;;;;;;7.67;5.00;;;;;;;;4953970;28;45519;-85
2022/02/08 09:00:00;;;;;;;;;6.67;6.67;;;;;;;;4969657;28;45925;-85
2022/02/08 09:02:25;;;;;;;;;8.00;6.67;;;;;;;;4949608;28;46349;-88
2022/02/08 09:04:52;;;;;;;;;8.67;5.00;;;;;;;;4968261;28;45448;-90
2022/02/08 09:07:17;;;;;;;;;10.00;9.00;;;;;;;;4953389;28;45446;-87
2022/02/08 09:09:46;;;;;;;;;10.67;5.33;;;;;;;;4964012;28;45576;-89
2022/02/08 09:12:24;;;;;;;;;7.33;6.67;;;;;;;;4970049;28;45452;-93
2022/02/08 09:25:38;;;;;;;;;11.67;9.33;;;;;;;;4970294;28;45530;-84
2022/02/08 09:30:49;;;;;;;;;10.00;9.00;;;;;;;;4966727;28;45575;-84
2022/02/08 09:33:15;;;;;;;;;14.67;9.67;;;;;;;;4951756;28;55874;-84
2022/02/08 09:35:40;;;;;;;;;8.33;8.00;;;;;;;;4968097;28;45682;-86
2022/02/08 09:38:05;;;;;;;;;8.00;8.00;;;;;;;;4967017;28;45928;-85
2022/02/08 09:40:30;;;;;;;;;8.00;6.00;;;;;;;;4961580;28;45572;-87
2022/02/08 09:42:57;;;;;;;;;7.67;7.67;;;;;;;;4964768;28;45346;-86
2022/02/08 09:45:23;;;;;;;;;7.67;7.33;;;;;;;;4964711;28;45542;-86
2022/02/08 09:48:00;;;;;;;;;8.33;8.00;;;;;;;;4960819;28;45648;-85
2022/02/08 09:50:28;;;;;;;;;12.67;6.33;;;;;;;;4949173;28;47506;-84
2022/02/08 09:52:59;;;;;;;;;5.67;3.33;;;;;;;;4965841;28;45692;-85
2022/02/08 09:55:25;;;;;;;;;9.67;9.67;;;;;;;;4948347;28;46386;-88
2022/02/08 09:57:51;;;;;;;;;10.00;10.00;;;;;;;;4971854;28;45543;-85
2022/02/08 10:00:17;;;;;;;;;9.33;9.00;;;;;;;;4960235;28;46125;-86
2022/02/08 10:02:42;;;;;;;;;10.00;8.67;;;;;;;;4966542;28;46150;-86
2022/02/08 10:05:08;;;;;;;;;9.67;9.00;;;;;;;;4957089;28;45667;-89
2022/02/08 10:07:35;;;;;;;;;9.33;9.00;;;;;;;;4966665;28;45556;-89
2022/02/08 10:10:00;;;;;;;;;11.00;9.67;;;;;;;;4972515;28;47486;-89
2022/02/08 10:12:32;;;;;;;;;10.67;10.00;;;;;;;;4967456;28;45427;-89
2022/02/08 10:22:36;;;;;;;;;9.00;9.00;;;;;;;;4964417;28;46023;-89
2022/02/08 10:25:09;;;;;;;;;11.00;10.00;;;;;;;;4964421;28;45650;-88
2022/02/08 10:27:38;;;;;;;;;12.67;9.00;;;;;;;;4982607;28;45644;-88
2022/02/08 10:38:40;;;;;;;;;11.00;8.67;;;;;;;;4967371;28;45557;-87
2022/02/08 10:41:14;;;;;;;;;10.00;9.33;;;;;;;;4967714;28;45631;-87
2022/02/08 10:43:40;;;;;;;;;10.00;10.00;;;;;;;;4963244;28;45625;-88
2022/02/08 10:46:16;;;;;;;;;10.00;9.33;;;;;;;;4969996;28;45436;-87
2022/02/08 10:48:41;;;;;;;;;12.00;10.00;;;;;;;;4960744;28;45433;-87
2022/02/08 10:51:07;;;;;;;;;10.00;9.00;;;;;;;;4975542;28;46948;-86
2022/02/08 10:53:39;;;;;;;;;10.00;8.67;;;;;;;;4962620;28;45578;-87
2022/02/08 10:56:09;;;;;;;;;6.00;5.00;;;;;;;;4956939;28;45789;-88
2022/02/08 10:58:41;;;;;;;;;9.00;9.00;;;;;;;;4958960;28;45450;-87
2022/02/08 11:01:12;;;;;;;;;10.00;8.00;;;;;;;;4970975;28;46529;-87
2022/02/08 11:03:50;;;;;;;;;11.00;6.00;;;;;;;;4962546;28;45507;-86
2022/02/08 11:24:52;;;;;;;;;9.67;9.67;;;;;;;;4972174;28;45537;-86
2022/02/08 11:27:19;;;;;;;;;7.33;6.67;;;;;;;;4958463;28;45511;-85
2022/02/08 11:30:15;;;;;;;;;10.00;7.67;;;;;;;;4965343;28;45497;-86
2022/02/08 11:54:28;;;;;;;;;8.00;6.67;;;;;;;;4890267;29;45918;-89
2022/02/08 12:00:11;;;;;;;;;6.00;6.00;;;;;;;;4892320;29;45757;-90
2022/02/08 12:07:25;;;;;;;;;8.00;8.00;;;;;;;;4895650;29;45468;-90
2022/02/08 12:31:31;;;;;;;;;7.67;6.00;;;;;;;;4963837;28;45449;-90
2022/02/08 12:34:23;;;;;;;;;6.00;4.00;;;;;;;;4975829;28;45379;-92
2022/02/08 12:58:51;;;;;;;;;7.00;5.00;;;;;;;;4988889;28;45582;-90
2022/02/08 13:01:29;;;;;;;;;4.00;4.00;;;;;;;;4969747;28;45632;-90
2022/02/08 14:08:30;;;;;;;;;7.00;7.00;;;;;;;;4989833;28;45374;-89
2022/02/08 14:20:57;;;;;;;;;6.67;5.33;;;;;;;;4996311;28;45274;-90
2022/02/08 15:09:21;;;;;;;;;12.33;11.33;;;;;;;;4872594;29;45817;-91
2022/02/08 15:11:59;;;;;;;;;10.33;10.33;;;;;;;;4873450;29;45649;-90
2022/02/08 15:14:27;;;;;;;;;10.67;10.67;;;;;;;;4903571;28;45614;-90
2022/02/08 15:16:53;;;;;;;;;10.00;9.00;;;;;;;;4972109;28;47453;-89
2022/02/08 15:19:18;;;;;;;;;7.67;6.67;;;;;;;;4967700;28;45620;-89
2022/02/08 15:21:43;;;;;;;;;8.33;7.33;;;;;;;;4981313;28;45444;-90
2022/02/08 15:24:10;;;;;;;;;12.33;9.33;;;;;;;;4969029;28;45536;-90
2022/02/08 15:26:36;;;;;;;;;6.00;6.00;;;;;;;;4989719;28;46245;-90
2022/02/08 15:29:04;;;;;;;;;6.00;6.00;;;;;;;;4973577;28;45815;-90
2022/02/08 15:31:29;;;;;;;;;8.33;7.33;;;;;;;;4963441;28;45743;-91
2022/02/08 15:33:56;;;;;;;;;8.00;7.00;;;;;;;;4974888;28;45557;-91
2022/02/08 15:36:21;;;;;;;;;9.33;8.00;;;;;;;;4973326;28;47224;-91
2022/02/08 15:38:51;;;;;;;;;6.33;6.33;;;;;;;;4986720;28;45734;-91
2022/02/08 15:41:17;;;;;;;;;7.67;5.67;;;;;;;;4976239;28;45520;-91
2022/02/08 15:43:45;;;;;;;;;10.67;8.67;;;;;;;;4959470;28;45514;-93
2022/02/08 15:46:24;;;;;;;;;6.33;6.33;;;;;;;;4988696;28;45580;-95
2022/02/08 15:48:50;;;;;;;;;9.00;6.00;;;;;;;;4967961;28;45502;-91
2022/02/08 16:09:34;;;;;;;;;9.00;8.00;;;;;;;;4985458;28;45531;-90
2022/02/08 16:15:02;;;;;;;;;12.67;10.33;;;;;;;;4989475;28;45386;-92
2022/02/08 16:20:38;;;;;;;;;13.00;8.67;;;;;;;;4963414;28;45629;-90
2022/02/08 16:54:58;;;;;;;;;13.00;10.00;;;;;;;;4990109;28;45541;-90
2022/02/08 16:57:37;;;;;;;;;11.33;11.33;;;;;;;;4975889;28;45474;-90
2022/02/08 17:00:04;;;;;;;;;12.33;11.00;;;;;;;;4982949;28;46522;-90
2022/02/08 17:02:31;;;;;;;;;17.33;12.33;;;;;;;;4969580;28;45557;-90
2022/02/08 17:05:00;;;;;;;;;16.00;14.00;;;;;;;;4989174;28;45409;-90
2022/02/08 17:07:25;;;;;;;;;14.33;13.67;;;;;;;;4973965;28;45320;-89
2022/02/08 17:10:01;;;;;;;;;13.00;12.00;;;;;;;;4958807;28;47108;-90
2022/02/08 17:12:54;;;;;;;;;13.33;11.67;;;;;;;;4966215;28;45368;-90
2022/02/08 17:15:41;;;;;;;;;12.00;10.00;;;;;;;;4986884;28;45409;-91
2022/02/08 17:38:31;;;;;;;;;17.00;13.00;;;;;;;;4995031;28;45362;-91
2022/02/08 17:48:17;;;;;;;;;14.00;13.00;;;;;;;;4992273;28;45465;-91
2022/02/08 17:50:42;;;;;;;;;17.33;15.67;;;;;;;;4975016;28;45340;-92
2022/02/08 17:53:07;;;;;;;;;16.67;12.33;;;;;;;;4987941;28;48656;-91
2022/02/08 17:55:33;;;;;;;;;13.33;12.00;;;;;;;;4992728;28;45504;-91
2022/02/08 17:58:00;;;;;;;;;16.33;12.33;;;;;;;;4990194;28;45864;-91
2022/02/08 18:00:25;;;;;;;;;15.67;14.00;;;;;;;;4972205;28;45549;-91
2022/02/08 18:02:51;;;;;;;;;18.67;16.67;;;;;;;;4993319;28;45443;-91
2022/02/08 18:05:16;;;;;;;;;17.00;16.00;;;;;;;;4975416;28;45596;-91
2022/02/08 18:07:42;;;;;;;;;18.67;17.67;;;;;;;;4974612;28;45781;-91
2022/02/08 18:10:09;;;;;;;;;14.67;13.67;;;;;;;;4979239;28;45288;-90
2022/02/08 18:12:36;;;;;;;;;15.00;15.00;;;;;;;;4967628;28;47492;-91
2022/02/08 18:15:06;;;;;;;;;14.67;14.67;;;;;;;;4984989;28;45741;-91
2022/02/08 18:17:37;;;;;;;;;18.67;13.33;;;;;;;;4988494;28;45382;-91
2022/02/08 18:20:22;;;;;;;;;18.00;15.67;;;;;;;;4990828;28;45504;-90
2022/02/08 19:21:45;;;;;;;;;9.67;9.67;;;;;;;;4914117;28;45443;-92
2022/02/08 19:24:10;;;;;;;;;12.33;12.33;;;;;;;;4910881;28;45534;-92
2022/02/08 19:26:36;;;;;;;;;12.00;11.00;;;;;;;;4915784;28;47996;-92
2022/02/08 19:29:01;;;;;;;;;11.33;9.67;;;;;;;;4912605;28;45621;-91
2022/02/08 19:31:27;;;;;;;;;9.00;9.00;;;;;;;;4901953;28;45504;-90
2022/02/08 19:33:55;;;;;;;;;9.67;7.33;;;;;;;;4899455;29;45859;-92
2022/02/08 19:36:20;;;;;;;;;11.00;9.00;;;;;;;;4913525;28;46187;-90
2022/02/08 19:38:48;;;;;;;;;10.00;10.00;;;;;;;;4916240;28;45514;-93
2022/02/08 19:41:20;;;;;;;;;11.00;9.00;;;;;;;;4918010;28;45764;-93
2022/02/08 19:43:47;;;;;;;;;10.33;10.00;;;;;;;;4914220;28;45415;-91
2022/02/08 19:46:12;;;;;;;;;11.00;7.00;;;;;;;;4914889;28;45384;-91
2022/02/08 19:48:37;;;;;;;;;6.67;6.67;;;;;;;;4899796;28;45635;-92
2022/02/08 19:51:03;;;;;;;;;7.33;7.33;;;;;;;;4913552;28;45935;-89
2022/02/08 19:54:02;;;;;;;;;8.67;8.67;;;;;;;;4913209;28;45488;-96
